Time;durP1;ratioP1;P1;durP2;ratioP2;P2;SDS_P1;SDS_P2;PMS_P1;PMS_P2;Temp;Humidity;BMP_temperature;BMP_pressure;BME280_temperature;BME280_humidity;BME280_pressure;Samples;Min_cycle;Max_cycle;Signal;HPM_P1;HPM_P2
2024/01/18 00:00:36;;;;;;;5.10;3.10;;;;;;;-8.27;100.00;96965.97;5097263;28;20460;-49
2024/01/18 00:03:03;;;;;;;5.43;3.10;;;;;;;-8.10;100.00;96969.59;5097721;28;20112;-49
2024/01/18 00:05:29;;;;;;;1.65;1.42;;;;;;;-8.30;100.00;96984.13;5097316;28;20056;-49
2024/01/18 00:07:55;;;;;;;5.03;2.30;;;;;;;-8.20;100.00;96945.88;5097518;28;20080;-54
2024/01/18 00:10:26;;;;;;;1.25;1.17;;;;;;;-8.42;100.00;96943.97;5097154;28;20052;-51
2024/01/18 00:12:52;;;;;;;2.70;1.77;;;;;;;-8.40;100.00;96930.38;5097007;28;20051;-48
2024/01/18 00:15:19;;;;;;;4.75;2.85;;;;;;;-8.39;100.00;96926.66;5097127;28;20079;-52
2024/01/18 00:17:45;;;;;;;2.88;2.05;;;;;;;-8.28;100.00;96914.69;5097237;28;20518;-48
2024/01/18 00:20:12;;;;;;;4.15;2.83;;;;;;;-8.36;100.00;96920.72;5097262;28;20087;-50
2024/01/18 00:22:38;;;;;;;2.13;1.58;;;;;;;-8.32;100.00;96898.56;5096930;28;20104;-55
2024/01/18 00:25:05;;;;;;;2.65;1.83;;;;;;;-8.38;100.00;96888.38;5097316;28;20087;-49
2024/01/18 00:27:31;;;;;;;0.90;0.90;;;;;;;-8.14;100.00;96896.06;5096877;28;20439;-49
2024/01/18 00:29:57;;;;;;;12.70;2.97;;;;;;;-8.21;100.00;96917.75;5097213;28;20060;-53
2024/01/18 00:32:23;;;;;;;6.15;2.95;;;;;;;-8.07;100.00;96915.84;5096793;28;20106;-53
2024/01/18 00:34:50;;;;;;;4.10;2.40;;;;;;;-8.06;100.00;96916.66;5097225;28;20048;-48
2024/01/18 00:37:16;;;;;;;5.38;2.40;;;;;;;-8.13;100.00;96917.06;5096685;28;20059;-54
2024/01/18 00:39:43;;;;;;;4.95;2.75;;;;;;;-7.70;100.00;96937.91;5097225;28;20079;-55
2024/01/18 00:42:09;;;;;;;3.03;1.90;;;;;;;-7.80;100.00;96932.81;5096598;28;20193;-50
2024/01/18 00:44:35;;;;;;;2.85;1.83;;;;;;;-7.82;100.00;96933.13;5096597;28;20044;-48
2024/01/18 00:47:02;;;;;;;2.85;1.73;;;;;;;-7.86;100.00;96934.03;5095801;28;20094;-53
2024/01/18 00:49:28;;;;;;;6.90;3.35;;;;;;;-7.88;100.00;96912.25;5096450;28;20056;-50
2024/01/18 00:51:54;;;;;;;2.30;1.85;;;;;;;-8.15;100.00;96905.91;5096903;28;20515;-49
2024/01/18 00:54:21;;;;;;;3.92;2.90;;;;;;;-8.07;100.00;96867.97;5096588;28;20051;-48
2024/01/18 00:56:47;;;;;;;6.57;2.83;;;;;;;-8.05;100.00;96873.00;5096663;28;20063;-49
2024/01/18 00:59:13;;;;;;;7.40;3.00;;;;;;;-7.74;100.00;96849.16;5096403;28;20101;-54
2024/01/18 01:01:39;;;;;;;3.92;2.53;;;;;;;-8.03;100.00;96846.09;5096867;28;20317;-50
2024/01/18 01:04:05;;;;;;;6.95;2.15;;;;;;;-8.03;100.00;96833.59;5096324;28;20083;-51
2024/01/18 01:06:31;;;;;;;3.83;2.83;;;;;;;-7.91;100.00;96817.91;5096804;28;20052;-52
2024/01/18 01:08:57;;;;;;;5.70;2.95;;;;;;;-8.07;100.00;96856.56;5096205;28;20055;-48
2024/01/18 01:11:24;;;;;;;3.97;2.33;;;;;;;-8.05;100.00;96819.84;5096179;28;20113;-51
2024/01/18 01:13:50;;;;;;;6.63;2.88;;;;;;;-8.00;100.00;96805.63;5096594;28;20059;-53
2024/01/18 01:16:16;;;;;;;5.10;2.75;;;;;;;-8.09;100.00;96782.44;5096249;28;20098;-53
2024/01/18 01:18:42;;;;;;;7.00;2.40;;;;;;;-8.09;100.00;96803.69;5096325;28;20087;-47
2024/01/18 01:21:08;;;;;;;4.50;1.40;;;;;;;-8.02;100.00;96774.03;5096309;28;20083;-51
2024/01/18 01:23:41;;;;;;;4.90;2.28;;;;;;;-8.02;100.00;96766.06;5096359;28;20455;-53
2024/01/18 01:26:08;;;;;;;10.68;2.45;;;;;;;-7.94;100.00;96751.22;5096247;28;20052;-51
2024/01/18 01:28:35;;;;;;;2.40;2.10;;;;;;;-7.81;100.00;96745.06;5096441;28;20084;-48
2024/01/18 01:31:01;;;;;;;1.80;1.65;;;;;;;-8.07;100.00;96753.66;5096203;28;20388;-51
2024/01/18 01:33:28;;;;;;;4.80;2.33;;;;;;;-8.01;100.00;96754.31;5096434;28;20059;-53
2024/01/18 01:35:54;;;;;;;7.20;3.15;;;;;;;-7.82;100.00;96735.50;5095983;28;20423;-53
2024/01/18 01:38:20;;;;;;;4.00;2.45;;;;;;;-8.21;100.00;96694.47;5096392;28;20048;-49
2024/01/18 01:40:47;;;;;;;13.90;3.60;;;;;;;-8.20;100.00;96616.28;5096205;28;20211;-51
2024/01/18 01:43:13;;;;;;;5.03;2.35;;;;;;;-7.97;100.00;96581.66;5095891;28;20157;-53
2024/01/18 01:45:40;;;;;;;4.25;3.10;;;;;;;-8.09;100.00;96537.06;5096177;28;20052;-48
2024/01/18 01:48:08;;;;;;;4.32;1.95;;;;;;;-8.45;100.00;96502.72;5095798;28;20112;-48
2024/01/18 01:50:34;;;;;;;7.97;2.95;;;;;;;-8.42;100.00;96488.84;5095829;28;20083;-48
2024/01/18 01:53:01;;;;;;;3.50;2.53;;;;;;;-8.43;100.00;96496.03;5095780;28;20048;-49
2024/01/18 01:55:27;;;;;;;3.60;2.90;;;;;;;-8.31;100.00;96533.38;5096054;28;20090;-49
2024/01/18 01:57:53;;;;;;;4.60;2.60;;;;;;;-8.39;100.00;96546.69;5096551;28;20178;-49
2024/01/18 02:00:21;;;;;;;4.65;2.80;;;;;;;-8.51;100.00;96568.50;5099663;28;20056;-48
2024/01/18 02:02:50;;;;;;;5.13;2.35;;;;;;;-8.51;100.00;96612.88;5099159;28;20414;-50
2024/01/18 02:05:16;;;;;;;3.75;2.58;;;;;;;-8.52;100.00;96688.34;5099653;28;20048;-51
2024/01/18 02:07:43;;;;;;;6.05;2.55;;;;;;;-8.40;100.00;96766.41;5099012;28;20432;-53
2024/01/18 02:10:10;;;;;;;5.05;2.42;;;;;;;-8.37;100.00;96821.59;5098988;28;20365;-52
2024/01/18 02:12:37;;;;;;;5.90;3.40;;;;;;;-8.26;100.00;96850.59;5099395;28;20067;-49
2024/01/18 02:15:05;;;;;;;2.78;2.22;;;;;;;-8.27;100.00;96854.34;5099028;28;20109;-49
2024/01/18 02:17:31;;;;;;;4.65;2.10;;;;;;;-8.37;100.00;96863.34;5099328;28;20098;-51
2024/01/18 02:19:58;;;;;;;4.85;3.25;;;;;;;-8.23;100.00;96913.81;5098824;28;20109;-48
2024/01/18 02:22:27;;;;;;;4.57;3.10;;;;;;;-8.25;100.00;96943.34;5099231;28;20087;-53
2024/01/18 02:24:59;;;;;;;2.45;2.20;;;;;;;-8.45;100.00;96975.69;5098816;28;20052;-53
2024/01/18 02:27:26;;;;;;;1.85;1.75;;;;;;;-8.19;100.00;96983.91;5099190;28;20052;-47
2024/01/18 02:29:52;;;;;;;3.40;2.42;;;;;;;-8.34;100.00;96972.47;5098743;28;20060;-54
2024/01/18 02:32:19;;;;;;;5.70;2.83;;;;;;;-8.38;100.00;96963.56;5099242;28;20048;-50
2024/01/18 02:34:45;;;;;;;3.70;2.40;;;;;;;-8.32;100.00;96988.16;5098925;28;20074;-47
2024/01/18 02:37:12;;;;;;;4.93;2.45;;;;;;;-8.16;100.00;96986.78;5098625;28;20447;-53
2024/01/18 02:39:39;;;;;;;6.10;3.17;;;;;;;-8.21;100.00;96986.84;5098721;28;20048;-49
2024/01/18 02:42:06;;;;;;;4.30;3.30;;;;;;;-8.04;100.00;96986.25;5098569;28;20083;-48
2024/01/18 02:44:33;;;;;;;5.60;3.53;;;;;;;-8.13;100.00;96993.34;5098787;28;20093;-51
2024/01/18 02:47:00;;;;;;;2.70;2.10;;;;;;;-8.05;100.00;96990.00;5098755;28;20090;-49
2024/01/18 02:49:26;;;;;;;4.82;2.03;;;;;;;-8.20;100.00;96982.31;5098648;28;20060;-55
2024/01/18 02:51:52;;;;;;;2.67;1.98;;;;;;;-8.38;100.00;96981.38;5098459;28;20135;-47
2024/01/18 02:54:18;;;;;;;10.32;3.40;;;;;;;-8.43;100.00;96994.75;5098862;28;20083;-53
2024/01/18 02:56:45;;;;;;;3.35;3.03;;;;;;;-8.18;100.00;97009.41;5098377;28;20408;-51
2024/01/18 02:59:11;;;;;;;3.85;2.63;;;;;;;-8.20;100.00;97003.59;5098455;28;20091;-51
2024/01/18 03:01:38;;;;;;;5.10;2.38;;;;;;;-8.11;100.00;96999.94;5098233;28;20052;-47
2024/01/18 03:04:05;;;;;;;6.30;3.45;;;;;;;-7.90;100.00;96986.22;5098535;28;20389;-53
2024/01/18 03:06:31;;;;;;;4.57;3.03;;;;;;;-7.87;100.00;96978.44;5098293;28;20051;-48
2024/01/18 03:08:57;;;;;;;2.47;2.03;;;;;;;-7.91;100.00;96918.97;5097884;28;20095;-54
2024/01/18 03:11:24;;;;;;;2.15;1.80;;;;;;;-8.01;100.00;96889.16;5097861;28;20048;-49
2024/01/18 03:13:50;;;;;;;3.88;2.42;;;;;;;-8.09;100.00;96895.97;5098294;28;20056;-50
2024/01/18 03:16:16;;;;;;;4.40;2.72;;;;;;;-7.78;100.00;96901.38;5098257;28;20090;-51
2024/01/18 03:18:46;;;;;;;6.28;3.53;;;;;;;-7.95;100.00;96861.34;5098185;28;20138;-49
2024/01/18 03:21:12;;;;;;;5.70;2.35;;;;;;;-7.78;100.00;96842.88;5098230;28;20048;-51
2024/01/18 03:23:38;;;;;;;3.58;2.80;;;;;;;-7.77;100.00;96825.81;5097964;28;20052;-48
2024/01/18 03:26:05;;;;;;;2.65;2.13;;;;;;;-8.01;100.00;96825.34;5098340;28;20055;-53
2024/01/18 03:28:31;;;;;;;5.78;3.20;;;;;;;-7.70;100.00;96849.31;5097997;28;20566;-51
2024/01/18 03:30:58;;;;;;;8.18;4.18;;;;;;;-7.95;100.00;96813.50;5098373;28;20087;-51
2024/01/18 03:33:24;;;;;;;10.38;3.50;;;;;;;-8.02;100.00;96866.31;5097797;28;20113;-48
2024/01/18 03:35:51;;;;;;;3.45;2.13;;;;;;;-8.05;100.00;96876.44;5098054;28;20087;-53
2024/01/18 03:38:18;;;;;;;7.15;3.38;;;;;;;-7.59;100.00;96904.66;5097811;28;20052;-49
2024/01/18 03:40:44;;;;;;;9.00;3.17;;;;;;;-7.90;100.00;96867.31;5097647;28;20413;-51
2024/01/18 03:43:12;;;;;;;5.53;2.88;;;;;;;-7.91;100.00;96862.31;5097843;28;20098;-51
2024/01/18 03:45:38;;;;;;;6.80;3.90;;;;;;;-7.73;100.00;96884.50;5097782;28;20048;-54
2024/01/18 03:48:05;;;;;;;4.30;2.90;;;;;;;-7.58;100.00;96892.94;5097858;28;20098;-49
2024/01/18 03:50:31;;;;;;;5.78;1.83;;;;;;;-7.73;100.00;96860.56;5097519;28;20087;-53
2024/01/18 03:52:58;;;;;;;6.43;4.00;;;;;;;-7.49;100.00;96857.63;5097870;28;20139;-51
2024/01/18 03:55:24;;;;;;;8.25;3.53;;;;;;;-7.50;100.00;96835.50;5097428;28;20131;-53
2024/01/18 03:57:51;;;;;;;13.18;3.25;;;;;;;-7.52;100.00;96831.63;5097500;28;20070;-49
2024/01/18 04:00:18;;;;;;;4.45;2.33;;;;;;;-7.45;100.00;96853.25;5097317;28;20091;-51
2024/01/18 04:02:44;;;;;;;5.95;3.28;;;;;;;-7.51;100.00;96852.59;5097277;28;20116;-48
2024/01/18 04:05:10;;;;;;;7.35;3.58;;;;;;;-7.46;100.00;96862.31;5097558;28;20120;-53
2024/01/18 04:07:38;;;;;;;3.90;2.55;;;;;;;-7.66;100.00;96864.41;5097256;28;20094;-50
2024/01/18 04:10:07;;;;;;;2.63;1.75;;;;;;;-7.51;100.00;96881.84;5097437;28;20393;-55
2024/01/18 04:12:34;;;;;;;5.97;3.05;;;;;;;-7.30;100.00;96887.47;5097319;28;20306;-50
2024/01/18 04:15:01;;;;;;;9.98;3.55;;;;;;;-7.03;100.00;96880.41;5097641;28;20443;-52
2024/01/18 04:17:27;;;;;;;11.18;4.13;;;;;;;-6.85;100.00;96850.09;5096809;28;20083;-48
2024/01/18 04:19:53;;;;;;;2.33;2.20;;;;;;;-7.39;100.00;96777.50;5097332;28;20048;-55
2024/01/18 04:22:22;;;;;;;7.35;2.17;;;;;;;-7.02;100.00;96802.09;5095751;28;20421;-53
2024/01/18 04:24:48;;;;;;;6.50;3.53;;;;;;;-7.25;100.00;96788.06;5097330;28;20048;-50
2024/01/18 04:27:16;;;;;;;12.02;4.22;;;;;;;-7.08;100.00;96793.44;5096753;28;20098;-53
2024/01/18 04:29:42;;;;;;;14.43;4.47;;;;;;;-7.02;100.00;96791.44;5096765;28;20355;-52
2024/01/18 04:32:09;;;;;;;6.72;4.05;;;;;;;-6.78;100.00;96797.13;5096618;28;20091;-53
2024/01/18 04:34:35;;;;;;;5.18;2.88;;;;;;;-7.13;100.00;96753.63;5096562;28;20055;-48
2024/01/18 04:37:02;;;;;;;9.38;3.65;;;;;;;-6.56;100.00;96766.13;5096970;28;20087;-54
2024/01/18 04:39:28;;;;;;;7.25;2.90;;;;;;;-7.01;100.00;96729.06;5096677;28;20047;-53
2024/01/18 04:41:55;;;;;;;7.28;3.65;;;;;;;-6.91;100.00;96731.44;5096685;28;20393;-54
2024/01/18 04:44:23;;;;;;;3.35;2.33;;;;;;;-6.97;100.00;96754.78;5096607;28;20153;-51
2024/01/18 04:46:49;;;;;;;5.78;2.83;;;;;;;-7.06;100.00;96743.34;5097032;28;20136;-49
2024/01/18 04:49:15;;;;;;;6.68;3.88;;;;;;;-6.87;100.00;96785.66;5096232;28;20044;-54
2024/01/18 04:51:42;;;;;;;5.05;3.20;;;;;;;-6.88;100.00;96787.53;5096893;28;20087;-48
2024/01/18 04:54:08;;;;;;;5.15;2.92;;;;;;;-7.08;100.00;96806.75;5096365;28;20306;-50
2024/01/18 04:56:37;;;;;;;3.50;2.53;;;;;;;-6.97;100.00;96828.56;5096419;28;20138;-51
2024/01/18 04:59:04;;;;;;;5.18;3.13;;;;;;;-6.89;100.00;96833.94;5096426;28;20277;-54
2024/01/18 05:01:31;;;;;;;8.10;2.95;;;;;;;-6.60;100.00;96840.59;5096408;28;20048;-53
2024/01/18 05:03:57;;;;;;;8.07;3.90;;;;;;;-6.70;100.00;96817.66;5096236;28;20094;-50
2024/01/18 05:06:23;;;;;;;6.00;3.40;;;;;;;-6.73;100.00;96799.66;5095777;28;20056;-54
2024/01/18 05:08:50;;;;;;;4.93;3.33;;;;;;;-6.57;100.00;96793.88;5096525;28;20048;-51
2024/01/18 05:11:16;;;;;;;2.47;1.67;;;;;;;-6.80;100.00;96761.22;5096105;28;20530;-49
2024/01/18 05:13:43;;;;;;;9.57;4.88;;;;;;;-6.55;100.00;96765.81;5096526;28;20083;-54
2024/01/18 05:16:09;;;;;;;7.35;4.22;;;;;;;-6.44;100.00;96740.41;5096221;28;20325;-51
2024/01/18 05:18:36;;;;;;;8.10;4.35;;;;;;;-6.27;100.00;96720.97;5096061;28;20051;-48
2024/01/18 05:21:03;;;;;;;6.10;4.05;;;;;;;-6.27;100.00;96682.84;5095981;28;20404;-54
2024/01/18 05:23:29;;;;;;;5.82;3.55;;;;;;;-6.26;100.00;96652.44;5096392;28;20043;-53
2024/01/18 05:25:55;;;;;;;6.45;3.60;;;;;;;-6.41;100.00;96601.16;5096158;28;20071;-47
2024/01/18 05:28:22;;;;;;;10.80;4.32;;;;;;;-6.50;100.00;96576.41;5095743;28;20067;-53
2024/01/18 05:30:50;;;;;;;9.55;3.00;;;;;;;-6.43;100.00;96602.59;5096112;28;20111;-52
2024/01/18 05:33:18;;;;;;;9.00;4.75;;;;;;;-6.65;100.00;96593.69;5097186;28;20051;-47
2024/01/18 05:35:45;;;;;;;4.97;2.53;;;;;;;-6.67;100.00;96606.53;5099613;28;20052;-55
2024/01/18 05:38:11;;;;;;;8.07;4.75;;;;;;;-6.46;100.00;96649.34;5099001;28;20434;-49
2024/01/18 05:40:37;;;;;;;6.63;3.80;;;;;;;-6.37;100.00;96662.63;5099667;28;20087;-54
2024/01/18 05:43:04;;;;;;;7.47;4.53;;;;;;;-6.60;100.00;96658.59;5099000;28;20062;-57
2024/01/18 05:45:30;;;;;;;11.75;5.38;;;;;;;-6.45;100.00;96690.88;5099211;28;20110;-55
2024/01/18 05:47:57;;;;;;;9.23;3.00;;;;;;;-6.63;100.00;96674.13;5099213;28;20409;-52
2024/01/18 05:50:24;;;;;;;16.30;6.50;;;;;;;-6.31;100.00;96708.59;5099030;28;20282;-57
2024/01/18 05:52:51;;;;;;;14.43;4.90;;;;;;;-6.44;100.00;96681.78;5098642;28;20044;-56
2024/01/18 05:55:17;;;;;;;6.15;3.60;;;;;;;-6.56;100.00;96670.19;5099129;28;20105;-53
2024/01/18 05:57:44;;;;;;;21.13;5.95;;;;;;;-6.68;100.00;96690.25;5098932;28;20048;-58
2024/01/18 06:00:12;;;;;;;5.25;2.72;;;;;;;-6.65;100.00;96705.63;5099183;28;20095;-53
2024/01/18 06:02:38;;;;;;;11.35;4.70;;;;;;;-6.60;100.00;96718.00;5098949;28;20056;-57
2024/01/18 06:05:06;;;;;;;7.35;5.60;;;;;;;-6.45;100.00;96730.09;5099203;28;20320;-54
2024/01/18 06:07:33;;;;;;;4.53;2.28;;;;;;;-6.59;100.00;96745.44;5099112;28;20062;-56
2024/01/18 06:10:00;;;;;;;11.57;4.32;;;;;;;-6.69;100.00;96765.97;5099155;28;20144;-55
2024/01/18 06:12:27;;;;;;;12.18;6.15;;;;;;;-6.94;100.00;96777.34;5098830;28;20048;-56
2024/01/18 06:14:53;;;;;;;32.38;12.93;;;;;;;-6.71;100.00;96818.78;5099248;28;20187;-55
2024/01/18 06:17:20;;;;;;;14.90;4.90;;;;;;;-6.54;100.00;96825.25;5098899;28;20340;-57
2024/01/18 06:19:46;;;;;;;12.23;6.40;;;;;;;-6.70;100.00;96803.56;5099176;28;20055;-55
2024/01/18 06:22:12;;;;;;;12.20;7.60;;;;;;;-6.55;100.00;96808.47;5098886;28;20122;-57
2024/01/18 06:24:39;;;;;;;16.25;8.68;;;;;;;-6.36;100.00;96797.53;5098938;28;20306;-55
2024/01/18 06:27:06;;;;;;;14.48;6.88;;;;;;;-6.67;100.00;96768.31;5098718;28;20043;-53
2024/01/18 06:29:32;;;;;;;5.65;3.83;;;;;;;-6.50;100.00;96772.88;5098782;28;20209;-58
2024/01/18 06:31:59;;;;;;;9.68;4.55;;;;;;;-6.46;100.00;96777.28;5099007;28;20063;-54
2024/01/18 06:34:25;;;;;;;19.90;6.88;;;;;;;-6.30;100.00;96777.59;5098652;28;20375;-54
2024/01/18 06:36:52;;;;;;;15.73;6.78;;;;;;;-6.43;100.00;96744.69;5098839;28;20161;-56
2024/01/18 06:39:18;;;;;;;7.63;4.82;;;;;;;-6.44;100.00;96731.63;5098441;28;20052;-52
2024/01/18 06:41:45;;;;;;;10.20;4.95;;;;;;;-6.35;100.00;96724.44;5098956;28;20101;-56
2024/01/18 06:44:12;;;;;;;12.93;6.47;;;;;;;-6.17;100.00;96704.63;5097379;28;20048;-55
2024/01/18 06:46:38;;;;;;;11.50;4.43;;;;;;;-6.45;100.00;96655.44;5098668;28;20055;-55
2024/01/18 06:49:05;;;;;;;10.40;5.05;;;;;;;-6.52;100.00;96671.91;5098531;28;20353;-58
2024/01/18 06:51:31;;;;;;;14.45;6.28;;;;;;;-6.53;100.00;96683.69;5098307;28;20074;-52
2024/01/18 06:53:58;;;;;;;22.17;5.53;;;;;;;-6.31;100.00;96693.38;5098286;28;20301;-54
2024/01/18 06:56:25;;;;;;;10.13;6.00;;;;;;;-6.12;100.00;96695.72;5098107;28;20141;-54
2024/01/18 06:58:51;;;;;;;22.60;7.88;;;;;;;-6.17;100.00;96669.97;5098481;28;20310;-57
2024/01/18 07:01:18;;;;;;;15.35;7.10;;;;;;;-6.25;100.00;96628.13;5098212;28;20417;-57
2024/01/18 07:03:45;;;;;;;6.28;4.07;;;;;;;-6.23;100.00;96617.13;5098276;28;20392;-53
2024/01/18 07:06:11;;;;;;;19.73;7.43;;;;;;;-6.23;100.00;96620.59;5098069;28;20075;-56
2024/01/18 07:08:38;;;;;;;8.30;3.40;;;;;;;-6.22;100.00;96589.38;5098219;28;20058;-58
2024/01/18 07:11:04;;;;;;;18.20;4.78;;;;;;;-6.09;100.00;96598.28;5098070;28;20053;-58
2024/01/18 07:13:31;;;;;;;10.82;5.05;;;;;;;-6.42;100.00;96598.84;5098449;28;20078;-55
2024/01/18 07:15:57;;;;;;;6.82;4.60;;;;;;;-6.04;100.00;96649.56;5097746;28;20052;-55
2024/01/18 07:18:24;;;;;;;13.88;5.03;;;;;;;-5.68;100.00;96630.41;5098014;28;20336;-56
2024/01/18 07:20:51;;;;;;;9.13;4.93;;;;;;;-6.14;100.00;96603.78;5097804;28;20043;-54
2024/01/18 07:23:17;;;;;;;7.20;3.78;;;;;;;-6.23;100.00;96620.59;5097806;28;20051;-52
2024/01/18 07:25:44;;;;;;;9.10;5.22;;;;;;;-6.01;100.00;96632.13;5098064;28;20056;-54
2024/01/18 07:28:10;;;;;;;10.48;4.95;;;;;;;-6.08;100.00;96627.28;5097571;28;20105;-57
2024/01/18 07:30:37;;;;;;;14.13;5.22;;;;;;;-6.06;100.00;96619.75;5097897;28;20051;-58
2024/01/18 07:33:04;;;;;;;5.07;3.75;;;;;;;-6.10;100.00;96613.47;5097483;28;20087;-56
2024/01/18 07:35:31;;;;;;;6.45;4.00;;;;;;;-5.80;100.00;96624.16;5097868;28;20332;-56
2024/01/18 07:37:58;;;;;;;11.75;5.25;;;;;;;-5.86;100.00;96604.09;5097391;28;20052;-53
2024/01/18 07:40:25;;;;;;;15.85;6.72;;;;;;;-5.99;100.00;96580.03;5097913;28;20336;-54
2024/01/18 07:42:51;;;;;;;8.55;4.15;;;;;;;-6.10;100.00;96570.03;5097344;28;20114;-54
2024/01/18 07:45:17;;;;;;;19.90;6.60;;;;;;;-5.77;100.00;96588.84;5097758;28;20087;-58
2024/01/18 07:47:44;;;;;;;19.88;7.10;;;;;;;-6.03;100.00;96576.44;5097146;28;20063;-54
2024/01/18 07:50:10;;;;;;;20.95;8.00;;;;;;;-5.68;100.00;96587.69;5097082;28;20063;-55
2024/01/18 07:52:38;;;;;;;20.25;7.57;;;;;;;-5.69;100.00;96590.69;5097284;28;20090;-57
2024/01/18 07:55:07;;;;;;;6.90;4.00;;;;;;;-5.86;100.00;96574.75;5097361;28;20470;-57
2024/01/18 07:57:33;;;;;;;11.60;5.85;;;;;;;-5.95;100.00;96591.63;5097128;28;20052;-57
2024/01/18 08:00:01;;;;;;;10.43;5.45;;;;;;;-5.67;100.00;96607.16;5097145;28;20055;-56
2024/01/18 08:02:27;;;;;;;6.55;3.95;;;;;;;-5.88;100.00;96601.75;5097321;28;20139;-58
2024/01/18 08:04:53;;;;;;;7.45;4.40;;;;;;;-5.74;100.00;96615.66;5096909;28;20102;-53
2024/01/18 08:07:20;;;;;;;16.60;5.97;;;;;;;-5.49;100.00;96624.66;5097261;28;20083;-54
2024/01/18 08:09:47;;;;;;;12.88;6.00;;;;;;;-5.56;100.00;96607.59;5096775;28;20417;-58
2024/01/18 08:12:13;;;;;;;13.73;6.20;;;;;;;-5.91;100.00;96610.41;5097181;28;20091;-55
2024/01/18 08:14:43;;;;;;;7.28;4.47;;;;;;;-5.78;100.00;96617.41;5096785;28;20433;-53
2024/01/18 08:17:10;;;;;;;13.15;5.90;;;;;;;-5.44;100.00;96650.38;5096831;28;20056;-57
2024/01/18 08:19:39;;;;;;;13.98;6.32;;;;;;;-5.32;100.00;96647.81;5096588;28;20056;-58
2024/01/18 08:22:05;;;;;;;11.10;6.00;;;;;;;-5.07;100.00;96605.22;5096692;28;20058;-55
2024/01/18 08:24:32;;;;;;;17.45;7.70;;;;;;;-4.57;100.00;96570.38;5097024;28;20052;-57
2024/01/18 08:26:59;;;;;;;11.32;5.50;;;;;;;-4.91;100.00;96463.81;5096797;28;20340;-52
2024/01/18 08:29:26;;;;;;;14.18;6.47;;;;;;;-4.83;100.00;96417.50;5096775;28;20047;-56
2024/01/18 08:31:53;;;;;;;20.88;6.00;;;;;;;-4.94;100.00;96385.06;5096478;28;20052;-55
2024/01/18 08:34:19;;;;;;;17.13;7.68;;;;;;;-4.27;100.00;96372.28;5096642;28;20149;-56
2024/01/18 08:36:46;;;;;;;11.38;5.45;;;;;;;-4.43;100.00;96233.16;5096402;28;20047;-58
2024/01/18 08:39:12;;;;;;;9.90;5.68;;;;;;;-4.91;100.00;96164.53;5097272;28;20128;-50
2024/01/18 08:41:38;;;;;;;12.85;6.35;;;;;;;-4.94;100.00;96224.00;5096326;28;20055;-55
2024/01/18 08:44:05;;;;;;;12.25;6.20;;;;;;;-4.64;100.00;96284.06;5096347;28;20056;-53
2024/01/18 08:46:32;;;;;;;12.98;5.90;;;;;;;-4.45;100.00;96218.56;5096488;28;20056;-52
2024/01/18 08:48:59;;;;;;;10.85;5.72;;;;;;;-4.62;100.00;96158.13;5095928;28;20044;-57
2024/01/18 08:51:25;;;;;;;16.98;7.22;;;;;;;-4.66;100.00;96163.38;5096127;28;20079;-57
2024/01/18 08:53:52;;;;;;;9.68;4.78;;;;;;;-5.04;100.00;96166.44;5096032;28;20056;-54
2024/01/18 08:56:18;;;;;;;9.05;5.22;;;;;;;-4.82;100.00;96229.31;5096264;28;20060;-59
2024/01/18 08:58:44;;;;;;;15.07;5.22;;;;;;;-4.63;100.00;96226.84;5095950;28;20412;-56
2024/01/18 09:01:12;;;;;;;13.30;5.55;;;;;;;-4.71;100.00;96206.34;5096216;28;20055;-53
2024/01/18 09:03:38;;;;;;;14.52;6.03;;;;;;;-4.23;100.00;96202.00;5095996;28;20143;-56
2024/01/18 09:06:05;;;;;;;7.38;4.85;;;;;;;-4.45;100.00;96165.06;5096446;28;20052;-54
2024/01/18 09:08:34;;;;;;;10.07;5.00;;;;;;;-4.36;100.00;96163.03;5095265;28;20256;-56
2024/01/18 09:11:00;;;;;;;13.95;5.97;;;;;;;-4.20;100.00;96107.66;5096033;28;20059;-52
2024/01/18 09:13:26;;;;;;;10.98;5.93;;;;;;;-4.27;100.00;96126.19;5096026;28;20143;-55
2024/01/18 09:15:53;;;;;;;21.83;7.35;;;;;;;-4.24;100.00;96080.03;5095923;28;20083;-55
2024/01/18 09:18:20;;;;;;;11.77;5.93;;;;;;;-4.26;100.00;96069.69;5096286;28;20048;-56
2024/01/18 09:20:47;;;;;;;14.02;6.43;;;;;;;-4.47;100.00;96069.13;5095888;28;20047;-54
2024/01/18 09:23:13;;;;;;;16.25;5.90;;;;;;;-4.09;100.00;96124.00;5096341;28;20118;-57
2024/01/18 09:25:39;;;;;;;18.77;6.38;;;;;;;-4.02;100.00;96118.81;5095795;28;20086;-57
2024/01/18 09:28:07;;;;;;;14.38;6.88;;;;;;;-4.26;100.00;96125.09;5096084;28;20128;-53
2024/01/18 09:30:34;;;;;;;12.55;5.65;;;;;;;-4.45;100.00;96107.03;5095680;28;20112;-54
2024/01/18 09:33:01;;;;;;;15.55;6.28;;;;;;;-4.06;100.00;96139.38;5096103;28;20044;-56
2024/01/18 09:35:29;;;;;;;14.70;6.82;;;;;;;-3.80;100.00;96107.53;5095460;28;20404;-56
2024/01/18 09:37:56;;;;;;;12.00;5.85;;;;;;;-3.89;100.00;96017.84;5095543;28;20063;-53
2024/01/18 09:40:22;;;;;;;14.38;6.45;;;;;;;-3.51;100.00;95995.72;5095789;28;20475;-55
2024/01/18 09:42:50;;;;;;;11.43;5.97;;;;;;;-4.02;100.00;95979.69;5095498;28;20074;-55
2024/01/18 09:45:22;;;;;;;12.80;7.00;;;;;;;-3.71;100.00;95988.78;5095629;28;20340;-57
2024/01/18 09:47:50;;;;;;;11.45;6.40;;;;;;;-3.99;100.00;95964.84;5095689;28;20052;-56
2024/01/18 09:50:19;;;;;;;14.50;7.10;;;;;;;-3.67;100.00;95957.50;5095729;28;20059;-53
2024/01/18 09:52:48;;;;;;;14.63;8.00;;;;;;;-3.63;100.00;95961.81;5095420;28;20048;-53
2024/01/18 09:55:15;;;;;;;13.90;7.50;;;;;;;-3.04;100.00;95945.72;5095805;28;20324;-55
2024/01/18 09:57:47;;;;;;;12.35;5.78;;;;;;;-4.12;100.00;95891.94;5095416;28;20052;-56
2024/01/18 10:00:15;;;;;;;21.95;9.45;;;;;;;-3.13;100.00;95973.53;5095743;28;20052;-55
2024/01/18 10:02:42;;;;;;;24.38;7.93;;;;;;;-3.24;100.00;95883.34;5095745;28;20159;-54
2024/01/18 10:05:12;;;;;;;25.10;8.75;;;;;;;-2.82;100.00;95875.28;5095505;28;20085;-58
2024/01/18 10:07:39;;;;;;;16.27;8.80;;;;;;;-2.74;100.00;95790.38;5095271;28;20471;-56
2024/01/18 10:10:10;;;;;;;15.00;7.25;;;;;;;-3.05;100.00;95724.44;5095162;28;20087;-54
2024/01/18 10:12:36;;;;;;;15.15;8.48;;;;;;;-2.79;100.00;95737.09;5095720;28;20404;-57
2024/01/18 10:15:03;;;;;;;17.02;8.27;;;;;;;-2.55;100.00;95746.59;5095194;28;20048;-57
2024/01/18 10:17:30;;;;;;;14.40;7.10;;;;;;;-3.38;100.00;95697.16;5095552;28;20055;-57
2024/01/18 10:19:57;;;;;;;13.73;7.68;;;;;;;-3.05;100.00;95781.50;5097475;28;20105;-58
2024/01/18 10:22:23;;;;;;;16.70;8.73;;;;;;;-3.41;100.00;95762.16;5099271;28;20059;-58
2024/01/18 10:24:50;;;;;;;19.02;8.18;;;;;;;-2.46;100.00;95785.44;5098777;28;20044;-58
2024/01/18 10:27:19;;;;;;;12.60;7.32;;;;;;;-3.03;100.00;95739.03;5098715;28;20048;-57
2024/01/18 10:29:45;;;;;;;11.70;7.40;;;;;;;-3.08;100.00;95752.72;5098278;28;20044;-54
2024/01/18 10:32:12;;;;;;;16.65;6.70;;;;;;;-3.57;100.00;95823.84;5098589;28;20362;-55
2024/01/18 10:34:39;;;;;;;22.23;8.98;;;;;;;-3.34;100.00;95917.63;5098709;28;20088;-57
2024/01/18 10:37:06;;;;;;;26.55;9.75;;;;;;;-2.48;100.00;95972.78;5098554;28;20133;-53
2024/01/18 10:39:39;;;;;;;25.25;9.45;;;;;;;-2.79;100.00;95893.34;5098613;28;20063;-56
2024/01/18 10:42:07;;;;;;;37.85;12.02;;;;;;;-2.48;100.00;95907.63;5098362;28;20067;-53
2024/01/18 10:44:38;;;;;;;16.70;8.48;;;;;;;-2.61;100.00;95813.19;5098401;28;20051;-55
2024/01/18 10:47:08;;;;;;;30.08;12.70;;;;;;;-2.34;100.00;95853.41;5098176;28;20051;-54
2024/01/18 10:49:37;;;;;;;18.95;10.18;;;;;;;-2.71;100.00;95801.16;5098564;28;20048;-57
2024/01/18 10:52:04;;;;;;;18.15;9.38;;;;;;;-2.26;100.00;95865.81;5098019;28;20048;-57
2024/01/18 10:54:31;;;;;;;26.10;13.02;;;;;;;-2.45;100.00;95848.66;5098023;28;20310;-58
2024/01/18 10:56:58;;;;;;;18.38;9.35;;;;;;;-3.03;100.00;95880.28;5098009;28;20055;-55
2024/01/18 10:59:26;;;;;;;19.20;9.63;;;;;;;-3.11;100.00;96026.75;5097824;28;20143;-56
2024/01/18 11:01:54;;;;;;;17.52;9.57;;;;;;;-2.48;100.00;96096.16;5098008;28;20086;-53
2024/01/18 11:04:21;;;;;;;24.58;11.73;;;;;;;-2.16;100.00;96026.97;5097521;28;20048;-56
2024/01/18 11:06:48;;;;;;;21.50;10.88;;;;;;;-2.31;100.00;96000.25;5097733;28;20152;-54
2024/01/18 11:09:15;;;;;;;20.30;10.30;;;;;;;-2.66;100.00;96018.06;5097465;28;20083;-55
2024/01/18 11:11:42;;;;;;;22.55;11.10;;;;;;;-2.28;100.00;96045.94;5098129;28;20421;-56
2024/01/18 11:14:09;;;;;;;22.88;11.52;;;;;;;-2.03;100.00;96021.41;5097815;28;20079;-53
2024/01/18 11:16:38;;;;;;;29.52;12.05;;;;;;;-2.02;100.00;95945.13;5098237;28;20056;-57
2024/01/18 11:19:05;;;;;;;27.80;12.60;;;;;;;-2.17;100.00;95955.63;5097700;28;20048;-55